Time;durP1;ratioP1;P1;durP2;ratioP2;P2;SDS_P1;SDS_P2;PMS_P1;PMS_P2;Temp;Humidity;BMP_temperature;BMP_pressure;BME280_temperature;BME280_humidity;BME280_pressure;Samples;Min_cycle;Max_cycle;Signal;HPM_P1;HPM_P2
2022/12/08 00:00:36;;;;;;;1999.90;999.90;;;-0.10;99.90;;;;;;5066579;28;20838;-75
2022/12/08 00:03:02;;;;;;;1999.90;999.90;;;-0.10;99.90;;;;;;5070164;28;20540;-74
2022/12/08 00:10:56;;;;;;;1999.90;999.90;;;0.00;99.90;;;;;;5071384;28;20111;-74
2022/12/08 00:13:22;;;;;;;1999.90;999.90;;;-0.10;99.90;;;;;;5071411;28;20079;-74
2022/12/08 00:15:48;;;;;;;1999.90;999.90;;;-0.10;99.90;;;;;;5072807;28;20063;-74
2022/12/08 00:18:13;;;;;;;1999.90;999.90;;;-0.20;99.90;;;;;;5074893;28;20407;-74
2022/12/08 00:20:39;;;;;;;1999.90;999.90;;;-0.10;99.90;;;;;;5075007;28;20450;-74
2022/12/08 00:23:05;;;;;;;1999.90;999.90;;;-0.10;99.90;;;;;;5074768;28;20400;-74
2022/12/08 00:25:31;;;;;;;1999.90;999.90;;;-0.10;99.90;;;;;;5073295;28;20166;-74
2022/12/08 00:27:57;;;;;;;1999.90;999.90;;;-0.10;99.90;;;;;;5075032;28;20041;-74
2022/12/08 00:30:22;;;;;;;1999.90;999.90;;;-0.20;99.90;;;;;;5073282;28;20460;-74
2022/12/08 00:32:48;;;;;;;1999.90;999.90;;;-0.10;99.90;;;;;;5074788;28;20028;-74
2022/12/08 00:35:13;;;;;;;1999.90;999.90;;;-0.10;99.90;;;;;;5072809;28;20036;-74
2022/12/08 00:37:39;;;;;;;1999.90;999.90;;;-0.10;99.90;;;;;;5071056;28;20024;-74
2022/12/08 00:40:05;;;;;;;1999.90;999.90;;;-0.10;99.90;;;;;;5074525;28;20029;-73
2022/12/08 00:42:31;;;;;;;1999.90;999.90;;;-0.10;99.90;;;;;;5074855;28;20024;-74
2022/12/08 00:44:57;;;;;;;1999.90;999.90;;;-0.10;99.90;;;;;;5081436;28;20032;-74
2022/12/08 00:47:22;;;;;;;1999.90;999.90;;;0.00;99.90;;;;;;5094188;28;20025;-74
2022/12/08 00:49:48;;;;;;;1999.90;999.90;;;0.00;99.90;;;;;;5094689;28;20032;-74
2022/12/08 00:52:13;;;;;;;1999.90;999.90;;;0.00;99.90;;;;;;5093480;28;20115;-74
2022/12/08 00:54:39;;;;;;;1999.90;999.90;;;0.00;99.90;;;;;;5094644;28;20471;-73
2022/12/08 00:57:05;;;;;;;1999.90;999.90;;;-0.10;99.90;;;;;;5093290;28;20043;-74
2022/12/08 00:59:31;;;;;;;1999.90;999.90;;;-0.10;99.90;;;;;;5072666;28;20029;-74
2022/12/08 01:01:56;;;;;;;1999.90;999.90;;;-0.10;99.90;;;;;;5054059;28;20032;-74
2022/12/08 01:04:22;;;;;;;1999.90;999.90;;;-0.10;99.90;;;;;;5070296;28;20127;-73
2022/12/08 01:06:48;;;;;;;1999.90;999.90;;;-0.10;99.90;;;;;;5074209;28;20025;-74
2022/12/08 01:09:15;;;;;;;1999.90;999.90;;;-0.10;99.90;;;;;;5074199;28;20032;-74
2022/12/08 01:11:41;;;;;;;1999.90;999.90;;;-0.10;99.90;;;;;;5072750;28;20399;-74
2022/12/08 01:14:06;;;;;;;1999.90;999.90;;;-0.20;99.90;;;;;;5073900;28;20033;-74
2022/12/08 01:16:34;;;;;;;1999.90;999.90;;;-0.20;99.90;;;;;;5071744;28;20387;-74
2022/12/08 01:19:00;;;;;;;1999.90;999.90;;;-0.20;99.90;;;;;;5073922;28;20024;-74
2022/12/08 01:21:27;;;;;;;1999.90;999.90;;;-0.10;99.90;;;;;;5074029;28;20020;-74
2022/12/08 01:23:53;;;;;;;1999.90;999.90;;;-0.20;99.90;;;;;;5072349;28;20054;-74
2022/12/08 01:26:19;;;;;;;1999.90;999.90;;;-0.20;99.90;;;;;;5073185;28;20484;-74
2022/12/08 01:28:46;;;;;;;1999.90;999.90;;;-0.20;99.90;;;;;;5072652;28;20399;-73
2022/12/08 01:31:17;;;;;;;1999.90;999.90;;;-0.10;99.90;;;;;;5072358;28;20029;-73
2022/12/08 01:33:43;;;;;;;1999.90;999.90;;;-0.20;99.90;;;;;;5071525;28;20037;-74
2022/12/08 01:36:22;;;;;;;1999.90;999.90;;;-0.20;99.90;;;;;;5071292;28;20033;-74
2022/12/08 01:38:48;;;;;;;1999.90;999.90;;;-0.20;99.90;;;;;;5072511;28;20024;-74
2022/12/08 01:41:20;;;;;;;1999.90;999.90;;;-0.20;99.90;;;;;;5077338;28;20032;-73
2022/12/08 01:43:56;;;;;;;1999.90;999.90;;;-0.20;99.90;;;;;;5076321;28;20021;-74
2022/12/08 01:46:23;;;;;;;1999.90;999.90;;;-0.20;99.90;;;;;;5091554;28;20081;-74
2022/12/08 01:48:52;;;;;;;1999.90;999.90;;;-0.20;99.90;;;;;;5092172;28;20051;-75
2022/12/08 01:51:18;;;;;;;1999.90;999.90;;;-0.20;99.90;;;;;;5093904;28;20028;-74
2022/12/08 01:53:44;;;;;;;1999.90;999.90;;;-0.20;99.90;;;;;;5092327;28;20574;-74
2022/12/08 01:56:31;;;;;;;1999.90;999.90;;;-0.20;99.90;;;;;;5092950;28;20111;-74
2022/12/08 01:58:57;;;;;;;1999.90;999.90;;;-0.20;99.90;;;;;;5078606;28;20531;-74
2022/12/08 02:01:23;;;;;;;1999.90;999.90;;;-0.20;99.90;;;;;;5053378;28;20033;-74
2022/12/08 02:03:59;;;;;;;1999.90;999.90;;;-0.20;99.90;;;;;;5063438;28;20048;-74
2022/12/08 02:06:27;;;;;;;1999.90;999.90;;;-0.10;99.90;;;;;;5071867;28;20020;-74
2022/12/08 02:08:54;;;;;;;1999.90;999.90;;;-0.20;99.90;;;;;;5072954;28;20013;-74
2022/12/08 02:11:20;;;;;;;1999.90;999.90;;;-0.20;99.90;;;;;;5072794;28;20372;-74
2022/12/08 02:13:47;;;;;;;1999.90;999.90;;;-0.20;99.90;;;;;;5072762;28;20024;-74
2022/12/08 02:16:34;;;;;;;1999.90;999.90;;;-0.20;99.90;;;;;;5072150;28;20032;-74
2022/12/08 02:19:37;;;;;;;1999.90;999.90;;;-0.20;99.90;;;;;;5072649;28;20082;-74
2022/12/08 02:22:27;;;;;;;1999.90;999.90;;;-0.30;99.90;;;;;;5072535;28;20031;-74
2022/12/08 02:25:10;;;;;;;1999.90;999.90;;;-0.30;99.90;;;;;;5056901;28;20028;-75
2022/12/08 02:27:58;;;;;;;1999.90;999.90;;;-0.30;99.90;;;;;;5072963;28;20021;-74
2022/12/08 02:30:39;;;;;;;1999.90;999.90;;;-0.40;99.90;;;;;;5071087;28;20036;-74
2022/12/08 02:33:05;;;;;;;1999.90;999.90;;;-0.40;99.90;;;;;;5071288;28;20124;-74
2022/12/08 02:36:03;;;;;;;1999.90;999.90;;;-0.40;99.90;;;;;;5071599;28;20099;-74
2022/12/08 02:38:47;;;;;;;1999.90;999.90;;;-0.40;99.90;;;;;;5069851;28;20539;-74
2022/12/08 02:41:31;;;;;;;1999.90;999.90;;;-0.40;99.90;;;;;;5071990;28;20099;-74
2022/12/08 02:44:04;;;;;;;1999.90;999.90;;;-0.40;99.90;;;;;;5072280;28;20025;-74
2022/12/08 02:46:34;;;;;;;1999.90;999.90;;;-0.40;99.90;;;;;;5052226;28;20096;-74
2022/12/08 02:49:01;;;;;;;1999.90;999.90;;;-0.50;99.90;;;;;;5051055;28;20498;-74
2022/12/08 02:51:27;;;;;;;1999.90;999.90;;;-0.50;99.90;;;;;;5051404;28;20025;-74
2022/12/08 02:53:52;;;;;;;1999.90;999.90;;;-0.50;99.90;;;;;;5052248;28;20529;-74
2022/12/08 02:56:46;;;;;;;1999.90;999.90;;;-0.50;99.90;;;;;;5050780;28;20365;-74
2022/12/08 02:59:30;;;;;;;;;;;-0.50;99.90;;;;;;5056279;28;20033;-74
2022/12/08 03:02:13;;;;;;;1999.90;999.90;;;-0.50;99.90;;;;;;5051997;28;19909;-74
2022/12/08 03:04:47;;;;;;;1999.90;999.90;;;-0.50;99.90;;;;;;5070386;28;20049;-74
2022/12/08 03:07:31;;;;;;;1999.90;999.90;;;-0.60;99.90;;;;;;5071182;28;20025;-74
2022/12/08 03:10:06;;;;;;;1999.90;999.90;;;-0.60;99.90;;;;;;5071828;28;20404;-74
2022/12/08 03:13:01;;;;;;;1999.90;999.90;;;-0.60;99.90;;;;;;5070873;28;20464;-74
2022/12/08 03:15:28;;;;;;;1999.90;999.90;;;-0.60;99.90;;;;;;5071789;28;20408;-74
2022/12/08 03:17:56;;;;;;;1999.90;999.90;;;-0.60;99.90;;;;;;5072110;28;20078;-74
2022/12/08 03:20:24;;;;;;;1999.90;999.90;;;-0.60;99.90;;;;;;5071985;28;20480;-73
2022/12/08 03:22:53;;;;;;;1999.90;999.90;;;-0.60;99.90;;;;;;5070437;28;20507;-74
2022/12/08 03:25:23;;;;;;;1999.90;999.90;;;-0.60;99.90;;;;;;5071533;28;20025;-74
2022/12/08 03:27:50;;;;;;;1999.90;999.90;;;-0.60;99.90;;;;;;5072153;28;20028;-74
2022/12/08 03:30:16;;;;;;;1999.90;999.90;;;-0.70;99.90;;;;;;5071805;28;20025;-74
2022/12/08 03:33:01;;;;;;;1999.90;999.90;;;-0.70;99.90;;;;;;5070496;28;20107;-74
2022/12/08 03:35:30;;;;;;;1999.90;999.90;;;-0.70;99.90;;;;;;5066527;28;20103;-74
2022/12/08 03:38:15;;;;;;;1999.90;999.90;;;-0.70;99.90;;;;;;5072095;28;20021;-74
2022/12/08 03:40:42;;;;;;;1999.90;999.90;;;-0.70;99.90;;;;;;5071391;28;20031;-74
2022/12/08 03:43:08;;;;;;;1999.90;999.90;;;-0.70;99.90;;;;;;5071539;28;20036;-73
2022/12/08 03:45:34;;;;;;;1999.90;999.90;;;-0.70;99.90;;;;;;5085340;28;20514;-74
2022/12/08 03:47:59;;;;;;;1999.90;999.90;;;-0.60;99.90;;;;;;5124083;28;20435;-74
2022/12/08 03:50:25;;;;;;;1999.90;999.90;;;-0.50;99.90;;;;;;5092239;28;20024;-74
2022/12/08 03:52:51;;;;;;;1999.90;999.90;;;-0.40;99.90;;;;;;5095831;28;20028;-74
2022/12/08 03:55:16;;;;;;;1999.90;999.90;;;-0.30;99.90;;;;;;5095593;28;20024;-74
2022/12/08 03:57:42;;;;;;;1999.90;999.90;;;-0.30;99.90;;;;;;5128750;27;20036;-74
2022/12/08 04:00:13;;;;;;;1999.90;999.90;;;-0.20;99.90;;;;;;5063285;28;20063;-74
2022/12/08 04:02:38;;;;;;;1999.90;999.90;;;-0.10;99.90;;;;;;5072683;28;20527;-73
2022/12/08 04:05:14;;;;;;;1999.90;999.90;;;-0.10;99.90;;;;;;5073793;28;20072;-74
2022/12/08 04:07:40;;;;;;;1999.90;999.90;;;0.10;99.90;;;;;;5074166;28;20024;-74
2022/12/08 04:10:06;;;;;;;1999.90;999.90;;;0.10;99.90;;;;;;5073771;28;20055;-74
2022/12/08 04:12:32;;;;;;;1999.90;999.90;;;0.20;99.90;;;;;;5075090;28;20016;-74
2022/12/08 04:14:57;;;;;;;1999.90;999.90;;;0.20;99.90;;;;;;5075166;28;20507;-74
2022/12/08 04:17:23;;;;;;;1999.90;999.90;;;0.30;99.90;;;;;;5073060;28;20024;-73
2022/12/08 04:19:49;;;;;;;1999.90;999.90;;;0.30;99.90;;;;;;5074497;28;20032;-74
2022/12/08 04:22:14;;;;;;;1999.90;999.90;;;0.40;99.90;;;;;;5075065;28;20031;-73
2022/12/08 04:24:40;;;;;;;1999.90;999.90;;;0.40;99.90;;;;;;5073040;28;20028;-74
2022/12/08 04:27:05;;;;;;;1999.90;999.90;;;0.50;99.90;;;;;;5075142;28;20027;-74
2022/12/08 04:29:31;;;;;;;1999.90;999.90;;;0.50;99.90;;;;;;5074882;28;20028;-74
2022/12/08 04:31:57;;;;;;;1999.90;999.90;;;0.50;99.90;;;;;;5073503;28;20027;-74
2022/12/08 04:34:22;;;;;;;1999.90;999.90;;;0.60;99.90;;;;;;5068266;28;20428;-74
2022/12/08 04:36:48;;;;;;;1999.90;999.90;;;0.60;99.90;;;;;;5074479;28;20124;-74
2022/12/08 04:39:13;;;;;;;1999.90;999.90;;;0.60;99.90;;;;;;5074681;28;20155;-73
2022/12/08 04:41:39;;;;;;;1999.90;999.90;;;0.70;99.90;;;;;;5072899;28;20107;-74
2022/12/08 04:44:05;;;;;;;1999.90;999.90;;;0.70;99.90;;;;;;5075509;28;20111;-74
2022/12/08 04:46:30;;;;;;;1999.90;999.90;;;0.70;99.90;;;;;;5093756;28;20390;-74
2022/12/08 04:48:56;;;;;;;1999.90;999.90;;;0.80;99.90;;;;;;5093911;28;20448;-74
2022/12/08 04:51:22;;;;;;;1999.90;999.90;;;0.80;99.90;;;;;;5095057;28;20442;-75
2022/12/08 04:53:58;;;;;;;1999.90;999.90;;;0.80;99.90;;;;;;5094880;28;20130;-74
2022/12/08 04:56:23;;;;;;;1999.90;999.90;;;0.90;99.90;;;;;;5093123;28;20020;-74
2022/12/08 04:58:49;;;;;;;1999.90;999.90;;;0.90;99.90;;;;;;5116859;27;20033;-74
2022/12/08 05:01:15;;;;;;;1999.90;999.90;;;0.90;99.90;;;;;;5052458;28;20025;-74
2022/12/08 05:03:40;;;;;;;1999.90;999.90;;;1.00;99.90;;;;;;5064600;28;20082;-74
2022/12/08 05:06:06;;;;;;;1999.90;999.90;;;1.10;99.90;;;;;;5074212;28;20025;-74
2022/12/08 05:08:32;;;;;;;1999.90;999.90;;;1.00;99.90;;;;;;5074349;28;20024;-74
2022/12/08 05:11:06;;;;;;;1999.90;999.90;;;1.00;99.90;;;;;;5072361;28;20488;-74
2022/12/08 05:13:32;;;;;;;1999.90;999.90;;;1.10;99.90;;;;;;5074029;28;20369;-74
2022/12/08 05:16:02;;;;;;;1999.90;999.90;;;1.00;99.90;;;;;;5073799;28;20039;-74
2022/12/08 05:18:28;;;;;;;1999.90;999.90;;;1.00;99.90;;;;;;5072158;28;20036;-74
2022/12/08 05:20:54;;;;;;;1999.90;999.90;;;1.10;99.90;;;;;;5073704;28;20047;-74
2022/12/08 05:23:19;;;;;;;1999.90;999.90;;;1.20;99.90;;;;;;5072578;28;20036;-73
2022/12/08 05:25:45;;;;;;;1999.90;999.90;;;1.10;99.90;;;;;;5072216;28;20472;-74
2022/12/08 05:28:11;;;;;;;1999.90;999.90;;;1.10;99.90;;;;;;5073911;28;20032;-74
2022/12/08 05:30:36;;;;;;;1999.90;999.90;;;1.10;99.90;;;;;;5073989;28;20017;-74
2022/12/08 05:33:02;;;;;;;1999.90;999.90;;;1.20;99.90;;;;;;5073629;28;20537;-74
2022/12/08 05:35:28;;;;;;;1999.90;999.90;;;1.20;99.90;;;;;;5067984;28;20613;-73
2022/12/08 05:37:53;;;;;;;1999.90;999.90;;;1.20;99.90;;;;;;5072736;28;20064;-73
2022/12/08 05:40:19;;;;;;;1999.90;999.90;;;1.30;99.90;;;;;;5071838;28;20461;-73
2022/12/08 05:42:44;;;;;;;1999.90;999.90;;;1.20;99.90;;;;;;5073372;28;20111;-74
2022/12/08 05:45:10;;;;;;;1999.90;999.90;;;1.30;99.90;;;;;;5081683;28;20028;-74
2022/12/08 05:47:36;;;;;;;1999.90;999.90;;;1.30;99.90;;;;;;5093839;28;20094;-74
2022/12/08 05:50:02;;;;;;;1999.90;999.90;;;1.30;99.90;;;;;;5091398;28;20020;-74
2022/12/08 05:52:27;;;;;;;1999.90;999.90;;;1.40;99.90;;;;;;5093829;28;20081;-74
2022/12/08 05:54:53;;;;;;;1999.90;999.90;;;1.40;99.90;;;;;;5090007;28;20032;-73
2022/12/08 05:57:18;;;;;;;1999.90;999.90;;;1.40;99.90;;;;;;5072604;28;20028;-73
2022/12/08 06:00:06;;;;;;;1999.90;999.90;;;1.40;99.90;;;;;;5060407;28;20025;-74
2022/12/08 06:02:57;;;;;;;1999.90;999.90;;;1.40;99.90;;;;;;5087514;28;20329;-74
2022/12/08 06:05:42;;;;;;;1999.90;999.90;;;1.40;99.90;;;;;;5071049;28;20064;-74
2022/12/08 06:08:20;;;;;;;1999.90;999.90;;;1.40;99.90;;;;;;5073124;28;20035;-74
2022/12/08 06:10:46;;;;;;;1999.90;999.90;;;1.40;99.90;;;;;;5072579;28;20142;-73
2022/12/08 06:13:12;;;;;;;1999.90;999.90;;;1.50;99.90;;;;;;5071866;28;20062;-73
2022/12/08 06:15:38;;;;;;;1999.90;999.90;;;1.40;99.90;;;;;;5073258;28;20029;-73
2022/12/08 06:18:05;;;;;;;1999.90;999.90;;;1.50;99.90;;;;;;5071392;28;20411;-73
2022/12/08 06:20:31;;;;;;;1999.90;999.90;;;1.50;99.90;;;;;;5072494;28;20020;-73
2022/12/08 06:22:57;;;;;;;1999.90;999.90;;;1.50;99.90;;;;;;5070876;28;20446;-73
2022/12/08 06:25:23;;;;;;;1999.90;999.90;;;1.60;99.90;;;;;;5072010;28;20016;-73
2022/12/08 06:27:49;;;;;;;1999.90;999.90;;;1.50;99.90;;;;;;5072651;28;20032;-73
2022/12/08 06:30:15;;;;;;;1999.90;999.90;;;1.60;99.90;;;;;;5072164;28;20021;-74
2022/12/08 06:32:40;;;;;;;1999.90;999.90;;;1.60;99.90;;;;;;5072218;28;20025;-73
2022/12/08 06:35:07;;;;;;;1999.90;999.90;;;1.60;99.90;;;;;;5071621;28;20016;-73
2022/12/08 06:37:32;;;;;;;1999.90;999.90;;;1.60;99.90;;;;;;5052266;28;20028;-73
2022/12/08 06:39:58;;;;;;;1999.90;999.90;;;1.60;99.90;;;;;;5052533;28;20029;-73
2022/12/08 06:45:09;;;;;;;1999.90;999.90;;;1.60;99.90;;;;;;5072869;28;20066;-73
2022/12/08 06:47:34;;;;;;;1999.90;999.90;;;1.60;99.90;;;;;;5071889;28;20028;-74
2022/12/08 06:50:00;;;;;;;1999.90;999.90;;;1.60;99.90;;;;;;5091526;28;20078;-73
2022/12/08 06:52:26;;;;;;;1999.90;999.90;;;1.70;99.90;;;;;;5071000;28;20032;-75
2022/12/08 06:54:51;;;;;;;1999.90;999.90;;;1.70;99.90;;;;;;5071874;28;20043;-75
2022/12/08 06:57:29;;;;;;;1999.90;999.90;;;1.60;99.90;;;;;;5069659;28;20029;-75
2022/12/08 06:59:55;;;;;;;1999.90;999.90;;;1.70;99.90;;;;;;5071888;28;20029;-74
2022/12/08 07:02:37;;;;;;;1999.90;999.90;;;1.60;99.90;;;;;;5072048;28;20089;-75
2022/12/08 07:05:06;;;;;;;1999.90;999.90;;;1.60;99.90;;;;;;5068240;28;20503;-75
2022/12/08 07:07:32;;;;;;;1999.90;999.90;;;1.60;99.90;;;;;;5070789;28;20028;-74
2022/12/08 07:09:57;;;;;;;1999.90;999.90;;;1.60;99.90;;;;;;5072490;28;20025;-74
2022/12/08 07:12:23;;;;;;;1999.90;999.90;;;1.60;99.90;;;;;;5059591;28;20476;-73
2022/12/08 07:14:49;;;;;;;1999.90;999.90;;;1.60;99.90;;;;;;5066886;28;20071;-72
2022/12/08 07:17:14;;;;;;;1999.90;999.90;;;1.60;99.90;;;;;;5067164;28;20032;-74
2022/12/08 07:19:40;;;;;;;1999.90;999.90;;;1.60;99.90;;;;;;5072534;28;20029;-73
2022/12/08 07:22:29;;;;;;;1999.90;999.90;;;1.60;99.90;;;;;;5071872;28;20036;-75
2022/12/08 07:25:06;;;;;;;1999.90;999.90;;;1.70;99.90;;;;;;5066991;28;20055;-75
2022/12/08 07:27:31;;;;;;;1999.90;999.90;;;1.70;99.90;;;;;;5072496;28;20020;-75
2022/12/08 07:30:21;;;;;;;1999.90;999.90;;;1.80;99.90;;;;;;5090761;28;20032;-73
2022/12/08 07:32:47;;;;;;;1999.90;999.90;;;1.70;99.90;;;;;;5066387;28;20029;-73
2022/12/08 07:35:28;;;;;;;1999.90;999.90;;;1.70;99.90;;;;;;5070543;28;20483;-73
2022/12/08 07:37:53;;;;;;;1999.90;999.90;;;1.70;99.90;;;;;;5074175;28;20025;-73
2022/12/08 07:40:19;;;;;;;1999.90;999.90;;;1.70;99.90;;;;;;5067508;28;20082;-73
2022/12/08 07:42:45;;;;;;;1999.90;999.90;;;1.70;99.90;;;;;;5068747;28;20502;-73
2022/12/08 07:45:10;;;;;;;1999.90;999.90;;;1.80;99.90;;;;;;5082923;28;20064;-73
2022/12/08 07:47:36;;;;;;;1999.90;999.90;;;1.70;99.90;;;;;;5074233;28;20794;-73
2022/12/08 07:50:02;;;;;;;1999.90;999.90;;;1.70;99.90;;;;;;5074112;28;20054;-74
2022/12/08 07:52:28;;;;;;;1999.90;999.90;;;1.70;99.90;;;;;;5071815;28;20119;-73
2022/12/08 07:54:54;;;;;;;1999.90;999.90;;;1.70;99.90;;;;;;5067830;28;20115;-73
2022/12/08 07:57:19;;;;;;;1999.90;999.90;;;1.80;99.90;;;;;;5080331;28;20467;-75
2022/12/08 07:59:45;;;;;;;1999.90;999.90;;;1.70;99.90;;;;;;5070122;28;20044;-73
2022/12/08 08:02:15;;;;;;;1999.90;999.90;;;1.70;99.90;;;;;;5067953;28;20039;-73
2022/12/08 08:04:41;;;;;;;1999.90;999.90;;;1.70;99.90;;;;;;5067530;28;20449;-74
2022/12/08 08:07:06;;;;;;;1999.90;999.90;;;1.60;99.90;;;;;;5065665;28;20071;-73
2022/12/08 08:09:33;;;;;;;1999.90;999.90;;;1.70;99.90;;;;;;5068613;28;20408;-74
2022/12/08 08:11:58;;;;;;;1999.90;999.90;;;1.60;99.90;;;;;;5069670;28;20072;-73
2022/12/08 08:14:24;;;;;;;1999.90;999.90;;;1.60;99.90;;;;;;5069393;28;20092;-73
2022/12/08 08:16:50;;;;;;;1999.90;999.90;;;1.70;99.90;;;;;;5067867;28;20032;-74
2022/12/08 08:19:15;;;;;;;1999.90;999.90;;;1.60;99.90;;;;;;5083827;28;20043;-73
2022/12/08 08:21:41;;;;;;;1999.90;999.90;;;1.70;99.90;;;;;;5066412;28;20487;-73
2022/12/08 08:24:07;;;;;;;1999.90;999.90;;;1.70;99.90;;;;;;5071685;28;20036;-74
2022/12/08 08:26:32;;;;;;;1999.90;999.90;;;1.80;99.90;;;;;;5067101;28;20032;-76
2022/12/08 08:28:58;;;;;;;1999.90;999.90;;;1.70;99.90;;;;;;5067914;28;20024;-74
2022/12/08 08:31:25;;;;;;;1999.90;999.90;;;1.80;99.90;;;;;;5067791;28;20028;-76
2022/12/08 08:33:51;;;;;;;1999.90;999.90;;;1.80;99.90;;;;;;5075837;28;20080;-76
2022/12/08 08:36:17;;;;;;;1999.90;999.90;;;1.80;99.90;;;;;;5068653;28;20036;-74
2022/12/08 08:38:43;;;;;;;1999.90;999.90;;;1.80;99.90;;;;;;5071349;28;20040;-76
2022/12/08 08:41:09;;;;;;;1999.90;999.90;;;1.80;99.90;;;;;;5068437;28;20029;-75
2022/12/08 08:43:36;;;;;;;1999.90;999.90;;;1.90;99.90;;;;;;5072312;28;20515;-77
2022/12/08 08:46:03;;;;;;;1999.90;999.90;;;1.90;99.90;;;;;;5059975;28;20028;-76
2022/12/08 08:48:29;;;;;;;1999.90;999.90;;;1.90;99.90;;;;;;5067328;28;20035;-73
2022/12/08 08:50:56;;;;;;;1999.90;999.90;;;2.00;99.90;;;;;;5063708;28;20016;-74
2022/12/08 08:53:22;;;;;;;1999.90;999.90;;;2.00;99.90;;;;;;5064237;28;20032;-78
2022/12/08 08:55:48;;;;;;;1999.90;999.90;;;2.00;99.90;;;;;;5060455;28;20400;-75
2022/12/08 08:58:14;;;;;;;1999.90;999.90;;;2.00;99.90;;;;;;5070873;28;20025;-76
2022/12/08 09:00:40;;;;;;;1999.90;999.90;;;2.00;99.90;;;;;;5060160;28;20110;-77
2022/12/08 09:03:17;;;;;;;1999.90;999.90;;;2.20;99.90;;;;;;5076544;28;20467;-75
2022/12/08 09:05:43;;;;;;;1999.90;999.90;;;2.20;99.90;;;;;;5066444;28;20224;-76
2022/12/08 09:08:10;;;;;;;1999.90;999.90;;;2.30;99.90;;;;;;5069125;28;20024;-75
2022/12/08 09:10:36;;;;;;;1999.90;999.90;;;2.40;99.90;;;;;;5071118;28;20036;-76
2022/12/08 09:13:29;;;;;;;1999.90;999.90;;;2.30;99.90;;;;;;5060620;28;20433;-75
2022/12/08 09:16:13;;;;;;;1999.90;999.90;;;2.30;99.90;;;;;;5075347;28;20024;-75
2022/12/08 09:18:42;;;;;;;1999.90;999.90;;;2.30;99.90;;;;;;5073473;28;20063;-75
2022/12/08 09:21:12;;;;;;;1999.90;999.90;;;2.40;99.90;;;;;;5064999;28;20060;-75
2022/12/08 09:23:38;;;;;;;1999.90;999.90;;;2.40;99.90;;;;;;5070250;28;20020;-76
2022/12/08 09:26:04;;;;;;;1999.90;999.90;;;2.40;99.90;;;;;;5065564;28;20104;-75
2022/12/08 09:28:31;;;;;;;1999.90;999.90;;;2.40;99.90;;;;;;5071011;28;20037;-74
2022/12/08 09:30:56;;;;;;;1999.90;999.90;;;2.40;99.90;;;;;;5064611;28;20028;-77
2022/12/08 09:33:22;;;;;;;1999.90;999.90;;;2.40;99.90;;;;;;5069458;28;20111;-75
2022/12/08 09:35:50;;;;;;;1999.90;999.90;;;2.40;99.90;;;;;;5070659;28;20032;-76
2022/12/08 09:38:49;;;;;;;1999.90;999.90;;;2.50;99.90;;;;;;5055743;28;20423;-75
2022/12/08 09:41:30;;;;;;;1999.90;999.90;;;2.50;99.90;;;;;;5061866;28;20055;-75
2022/12/08 09:44:19;;;;;;;1999.90;999.90;;;2.50;99.90;;;;;;5061544;28;20124;-76
2022/12/08 09:46:47;;;;;;;1999.90;999.90;;;2.70;99.90;;;;;;5058902;28;20423;-75
2022/12/08 09:49:17;;;;;;;1999.90;999.90;;;2.70;99.90;;;;;;5072010;28;20388;-75
2022/12/08 09:51:56;;;;;;;1999.90;999.90;;;2.70;99.90;;;;;;5069710;28;20115;-76
2022/12/08 09:54:42;;;;;;;1999.90;999.90;;;2.70;99.90;;;;;;5064244;28;20037;-75
2022/12/08 09:57:14;;;;;;;1999.90;999.90;;;2.70;99.90;;;;;;5070153;28;20032;-75
2022/12/08 09:59:46;;;;;;;1999.90;999.90;;;2.80;99.90;;;;;;5075067;28;20097;-77
2022/12/08 10:02:25;;;;;;;1999.90;999.90;;;2.90;99.90;;;;;;5069209;28;20127;-75
2022/12/08 10:04:54;;;;;;;1999.90;999.90;;;2.90;99.90;;;;;;5061040;28;20044;-76
2022/12/08 10:07:39;;;;;;;1999.90;999.90;;;3.00;99.90;;;;;;5060649;28;20031;-76
2022/12/08 10:10:50;;;;;;;1999.90;999.90;;;3.20;99.90;;;;;;5062289;28;20389;-76
2022/12/08 10:13:51;;;;;;;1999.90;999.90;;;3.30;99.90;;;;;;5056933;28;20082;-75
2022/12/08 10:16:41;;;;;;;1999.90;999.90;;;3.20;99.90;;;;;;5059973;28;20436;-76
2022/12/08 10:19:17;;;;;;;1999.90;999.90;;;3.30;99.90;;;;;;5046887;28;20102;-76
2022/12/08 10:21:43;;;;;;;1999.90;999.90;;;3.30;99.90;;;;;;5073433;28;20031;-76
2022/12/08 10:24:36;;;;;;;1999.90;999.90;;;3.30;99.90;;;;;;5063798;28;20040;-75
2022/12/08 10:27:14;;;;;;;1999.90;999.90;;;3.40;99.90;;;;;;5063609;28;20044;-74
2022/12/08 10:29:56;;;;;;;1999.90;999.90;;;3.50;99.90;;;;;;5058373;28;20064;-76
2022/12/08 10:32:34;;;;;;;1999.90;999.90;;;3.60;99.90;;;;;;5062394;28;20123;-74
2022/12/08 10:35:19;;;;;;;1999.90;999.90;;;3.70;99.90;;;;;;5066966;28;20123;-76
2022/12/08 10:38:05;;;;;;;1999.90;999.90;;;3.60;99.90;;;;;;5098057;28;20122;-74
2022/12/08 10:40:58;;;;;;;1999.90;999.90;;;3.60;99.90;;;;;;5066258;28;20032;-75
2022/12/08 10:43:44;;;;;;;1999.90;999.90;;;3.50;99.90;;;;;;5069277;28;20035;-77
2022/12/08 10:46:25;;;;;;;1999.90;999.90;;;3.40;99.90;;;;;;5067704;28;20037;-75
2022/12/08 10:49:08;;;;;;;1999.90;999.90;;;3.50;99.90;;;;;;5069524;28;20052;-76
2022/12/08 10:51:45;;;;;;;1999.90;999.90;;;3.60;99.90;;;;;;5068547;28;20503;-76
2022/12/08 10:54:36;;;;;;;1999.90;999.90;;;3.60;99.90;;;;;;5069373;28;20059;-75
2022/12/08 10:57:04;;;;;;;1999.90;999.90;;;3.60;99.90;;;;;;5067587;28;20032;-77
2022/12/08 10:59:33;;;;;;;1999.90;999.90;;;3.70;99.90;;;;;;5063657;28;20045;-77
2022/12/08 11:01:59;;;;;;;1999.90;999.90;;;3.80;99.90;;;;;;5067849;28;20035;-75
2022/12/08 11:04:35;;;;;;;1999.90;999.90;;;4.10;99.90;;;;;;5070472;28;20071;-78
2022/12/08 11:07:03;;;;;;;1999.90;999.90;;;4.30;99.90;;;;;;5067916;28;20029;-76
2022/12/08 11:09:47;;;;;;;1999.90;999.90;;;4.40;99.90;;;;;;5069559;28;20021;-77
2022/12/08 11:12:30;;;;;;;1999.90;999.90;;;4.30;99.90;;;;;;5067700;28;20054;-75
2022/12/08 11:15:02;;;;;;;1999.90;999.90;;;4.40;99.90;;;;;;5075194;28;20514;-76
2022/12/08 11:17:35;;;;;;;1999.90;999.90;;;4.30;99.90;;;;;;5049599;28;20029;-77
2022/12/08 11:20:02;;;;;;;1999.90;999.90;;;4.30;99.90;;;;;;5074674;28;20028;-78
2022/12/08 11:22:45;;;;;;;1999.90;999.90;;;4.40;99.90;;;;;;5061224;28;20074;-77
2022/12/08 11:25:23;;;;;;;1999.90;999.90;;;4.40;99.90;;;;;;5062770;28;20089;-74
2022/12/08 11:27:52;;;;;;;1999.90;999.90;;;4.60;99.90;;;;;;5061669;28;20067;-74
2022/12/08 11:30:18;;;;;;;1999.90;999.90;;;4.60;99.90;;;;;;5061383;28;21335;-76
2022/12/08 11:32:49;;;;;;;1999.90;999.90;;;4.50;99.90;;;;;;5068795;28;20131;-76
2022/12/08 11:35:28;;;;;;;1999.90;999.90;;;4.20;99.90;;;;;;5072481;28;20541;-77
2022/12/08 11:38:00;;;;;;;1999.90;999.90;;;4.10;99.90;;;;;;5062648;28;20432;-76
2022/12/08 11:40:33;;;;;;;1999.90;999.90;;;4.00;99.90;;;;;;5068341;28;20066;-78
2022/12/08 11:43:19;;;;;;;1999.90;999.90;;;4.00;99.90;;;;;;5057684;28;20115;-77
2022/12/08 11:45:53;;;;;;;1999.90;999.90;;;3.90;99.90;;;;;;5064590;28;20032;-74
2022/12/08 11:48:28;;;;;;;1999.90;999.90;;;4.00;99.90;;;;;;5061895;28;20033;-79
2022/12/08 11:51:11;;;;;;;1999.90;999.90;;;4.10;99.90;;;;;;5069164;28;20522;-79
2022/12/08 11:54:02;;;;;;;1999.90;999.90;;;4.10;99.90;;;;;;5052132;28;20040;-77
2022/12/08 11:56:36;;;;;;;1999.90;999.90;;;4.10;99.90;;;;;;5065514;28;20056;-76
2022/12/08 11:59:28;;;;;;;1999.90;999.90;;;4.40;99.90;;;;;;5063589;28;20021;-78
2022/12/08 12:01:55;;;;;;;1999.90;999.90;;;4.30;99.90;;;;;;5054137;28;20171;-77
2022/12/08 12:04:46;;;;;;;1999.90;999.90;;;4.40;99.90;;;;;;5052135;28;20087;-75
2022/12/08 12:07:34;;;;;;;1999.90;999.90;;;4.40;99.90;;;;;;5057651;28;20543;-74
2022/12/08 12:10:24;;;;;;;1999.90;999.90;;;4.40;99.90;;;;;;5054119;28;20646;-77
2022/12/08 12:13:08;;;;;;;1999.90;999.90;;;4.60;99.90;;;;;;5059433;28;20029;-78
2022/12/08 12:16:16;;;;;;;1999.90;999.90;;;4.70;99.90;;;;;;5062460;28;20037;-76
2022/12/08 12:19:13;;;;;;;1999.90;999.90;;;4.60;99.90;;;;;;5062154;28;20145;-76
2022/12/08 12:21:55;;;;;;;1999.90;999.90;;;4.50;99.90;;;;;;5060331;28;20033;-78
2022/12/08 12:24:48;;;;;;;1999.90;999.90;;;4.60;99.90;;;;;;5060369;28;20163;-78
2022/12/08 12:27:54;;;;;;;1999.90;999.90;;;4.70;99.90;;;;;;5081647;28;20029;-78
2022/12/08 12:30:35;;;;;;;1999.90;999.90;;;4.80;99.90;;;;;;5066074;28;20021;-77
2022/12/08 12:33:01;;;;;;;1999.90;999.90;;;4.90;99.90;;;;;;5066968;28;20051;-76
2022/12/08 12:35:27;;;;;;;1999.90;999.90;;;5.20;99.90;;;;;;5068467;28;20090;-76